Time;durP1;ratioP1;P1;durP2;ratioP2;P2;SDS_P1;SDS_P2;PMS_P1;PMS_P2;Temp;Humidity;BMP_temperature;BMP_pressure;BME280_temperature;BME280_humidity;BME280_pressure;Samples;Min_cycle;Max_cycle;Signal;HPM_P1;HPM_P2
2021/12/31 00:02:01;;;;;;;5.68;2.85;;;;;;;;;;5038767;28;20366;-74
2021/12/31 00:04:27;;;;;;;9.68;4.20;;;;;;;;;;5064329;28;20147;-72
2021/12/31 00:06:53;;;;;;;10.85;5.40;;;;;;;;;;5062071;28;20481;-73
2021/12/31 00:09:19;;;;;;;4.47;2.33;;;;;;;;;;5057509;28;20116;-74
2021/12/31 00:11:45;;;;;;;11.23;5.50;;;;;;;;;;5050755;28;20049;-73
2021/12/31 00:14:10;;;;;;;9.38;4.85;;;;;;;;;;5055821;28;20051;-73
2021/12/31 00:16:36;;;;;;;7.55;3.58;;;;;;;;;;5044936;28;20083;-73
2021/12/31 00:19:02;;;;;;;5.93;3.13;;;;;;;;;;5045214;28;20067;-73
2021/12/31 00:21:32;;;;;;;14.63;6.70;;;;;;;;;;5037661;28;20019;-73
2021/12/31 00:23:59;;;;;;;2.15;1.38;;;;;;;;;;5049444;28;20394;-73
2021/12/31 00:26:25;;;;;;;7.30;3.95;;;;;;;;;;5040390;28;20016;-74
2021/12/31 00:28:50;;;;;;;16.45;8.27;;;;;;;;;;5060959;28;20036;-73
2021/12/31 00:31:16;;;;;;;5.43;2.97;;;;;;;;;;5065547;28;20021;-74
2021/12/31 00:33:42;;;;;;;8.40;3.55;;;;;;;;;;5054236;28;20092;-74
2021/12/31 00:36:08;;;;;;;4.57;2.58;;;;;;;;;;5067068;28;20436;-74
2021/12/31 00:38:34;;;;;;;11.07;6.38;;;;;;;;;;5059318;28;20032;-74
2021/12/31 00:41:00;;;;;;;7.88;3.92;;;;;;;;;;5041476;28;20028;-74
2021/12/31 00:43:26;;;;;;;13.10;6.28;;;;;;;;;;5065569;28;20024;-74
2021/12/31 00:45:52;;;;;;;6.65;2.92;;;;;;;;;;5036505;28;20021;-73
2021/12/31 00:48:18;;;;;;;8.13;4.55;;;;;;;;;;5065356;28;20018;-74
2021/12/31 00:50:44;;;;;;;7.07;3.65;;;;;;;;;;5061898;28;20051;-74
2021/12/31 00:53:10;;;;;;;7.97;3.25;;;;;;;;;;5055416;28;20128;-73
2021/12/31 00:55:37;;;;;;;9.88;5.03;;;;;;;;;;5047796;28;20075;-73
2021/12/31 00:58:03;;;;;;;6.95;4.10;;;;;;;;;;5049312;28;20052;-74
2021/12/31 01:00:29;;;;;;;5.88;3.50;;;;;;;;;;5040548;28;20024;-73
2021/12/31 01:02:55;;;;;;;4.57;2.22;;;;;;;;;;5059625;28;20033;-73
2021/12/31 01:05:21;;;;;;;3.55;1.90;;;;;;;;;;5065557;28;20075;-73
2021/12/31 01:07:47;;;;;;;5.97;3.45;;;;;;;;;;5054243;28;20422;-73
2021/12/31 01:10:16;;;;;;;10.10;5.25;;;;;;;;;;5065934;28;20079;-74
2021/12/31 01:12:42;;;;;;;4.75;2.60;;;;;;;;;;5041716;28;20025;-74
2021/12/31 01:15:19;;;;;;;4.15;1.75;;;;;;;;;;5057578;28;20055;-73
2021/12/31 01:20:18;;;;;;;0.98;0.57;;;;;;;;;;5056688;28;20564;-74
2021/12/31 01:22:45;;;;;;;10.13;4.53;;;;;;;;;;5042464;28;20037;-72
2021/12/31 01:25:11;;;;;;;11.45;6.25;;;;;;;;;;5063780;28;20107;-73
2021/12/31 01:27:38;;;;;;;8.48;4.20;;;;;;;;;;5054209;28;20025;-73
2021/12/31 01:30:05;;;;;;;8.73;5.35;;;;;;;;;;5054305;28;20024;-73
2021/12/31 01:32:31;;;;;;;7.80;4.60;;;;;;;;;;5066018;28;20516;-74
2021/12/31 01:34:57;;;;;;;5.07;2.63;;;;;;;;;;5064823;28;20394;-73
2021/12/31 01:37:24;;;;;;;5.30;2.78;;;;;;;;;;5041763;28;20029;-73
2021/12/31 01:39:50;;;;;;;9.98;4.80;;;;;;;;;;5070826;28;20033;-74
2021/12/31 01:42:21;;;;;;;9.75;5.07;;;;;;;;;;5060046;28;20025;-73
2021/12/31 01:44:55;;;;;;;10.23;5.63;;;;;;;;;;5064127;28;20029;-73
2021/12/31 01:47:23;;;;;;;6.30;3.38;;;;;;;;;;5069063;28;20554;-73
2021/12/31 01:49:58;;;;;;;5.97;2.85;;;;;;;;;;5039664;28;20033;-74
2021/12/31 01:52:25;;;;;;;5.88;3.35;;;;;;;;;;5067542;28;20034;-73
2021/12/31 01:54:51;;;;;;;13.57;7.38;;;;;;;;;;5047329;28;20067;-72
2021/12/31 01:57:18;;;;;;;4.72;2.55;;;;;;;;;;5068399;28;20398;-73
2021/12/31 01:59:44;;;;;;;3.05;1.88;;;;;;;;;;5039549;28;20124;-73
2021/12/31 02:02:10;;;;;;;4.43;2.20;;;;;;;;;;5069368;28;20055;-73
2021/12/31 02:04:38;;;;;;;7.28;3.67;;;;;;;;;;5043901;28;20032;-73
2021/12/31 02:07:04;;;;;;;4.72;2.88;;;;;;;;;;5062407;28;20025;-73
2021/12/31 02:09:35;;;;;;;6.90;3.55;;;;;;;;;;5069971;28;20023;-73
2021/12/31 02:12:01;;;;;;;6.03;2.67;;;;;;;;;;5052867;28;20394;-73
2021/12/31 02:14:28;;;;;;;4.65;2.78;;;;;;;;;;5060493;28;20509;-73
2021/12/31 02:16:53;;;;;;;4.95;2.67;;;;;;;;;;5063021;28;20564;-73
2021/12/31 02:19:27;;;;;;;5.82;3.08;;;;;;;;;;5068973;28;20108;-73
2021/12/31 02:21:53;;;;;;;3.75;1.92;;;;;;;;;;5038918;28;20029;-73
2021/12/31 02:24:21;;;;;;;3.33;2.28;;;;;;;;;;5067160;28;20394;-73
2021/12/31 02:26:47;;;;;;;10.38;6.28;;;;;;;;;;5063449;28;20044;-73
2021/12/31 02:29:13;;;;;;;5.15;2.80;;;;;;;;;;5060412;28;20471;-73
2021/12/31 02:31:39;;;;;;;12.45;6.90;;;;;;;;;;5070060;28;20025;-73
2021/12/31 02:34:05;;;;;;;4.45;1.98;;;;;;;;;;5056739;28;20021;-74
2021/12/31 02:36:31;;;;;;;5.10;2.63;;;;;;;;;;5065920;28;20040;-73
2021/12/31 02:38:57;;;;;;;6.53;3.03;;;;;;;;;;5064217;28;20090;-73
2021/12/31 02:41:23;;;;;;;3.95;2.50;;;;;;;;;;5058753;28;20023;-73
2021/12/31 02:43:49;;;;;;;2.65;1.55;;;;;;;;;;5068557;28;20485;-73
2021/12/31 02:46:15;;;;;;;8.50;4.18;;;;;;;;;;5058642;28;20025;-73
2021/12/31 02:48:41;;;;;;;1.70;0.88;;;;;;;;;;5064114;28;20025;-73
2021/12/31 02:51:07;;;;;;;5.47;3.22;;;;;;;;;;5065759;28;20086;-73
2021/12/31 02:53:40;;;;;;;8.90;4.85;;;;;;;;;;5050836;28;20025;-73
2021/12/31 02:56:11;;;;;;;4.22;1.35;;;;;;;;;;5041613;28;20035;-73
2021/12/31 02:58:37;;;;;;;2.08;1.38;;;;;;;;;;5064564;28;20033;-73
2021/12/31 03:01:04;;;;;;;5.40;3.13;;;;;;;;;;5046757;28;20028;-73
2021/12/31 03:03:31;;;;;;;7.00;3.88;;;;;;;;;;5056229;28;20114;-73
2021/12/31 03:05:58;;;;;;;7.05;3.85;;;;;;;;;;5051461;28;20068;-72
2021/12/31 03:08:25;;;;;;;5.32;2.95;;;;;;;;;;5059883;28;20016;-73
2021/12/31 03:10:52;;;;;;;6.75;4.13;;;;;;;;;;5062440;28;20111;-73
2021/12/31 03:13:18;;;;;;;3.75;1.70;;;;;;;;;;5066992;28;20040;-74
2021/12/31 03:15:45;;;;;;;2.05;1.17;;;;;;;;;;5056622;28;20025;-74
2021/12/31 03:18:11;;;;;;;2.00;1.58;;;;;;;;;;5068323;28;20419;-73
2021/12/31 03:20:41;;;;;;;8.25;2.17;;;;;;;;;;5061507;28;20035;-73
2021/12/31 03:23:07;;;;;;;4.90;2.92;;;;;;;;;;5059372;28;20407;-72
2021/12/31 03:25:34;;;;;;;6.50;3.38;;;;;;;;;;5069107;28;20445;-73
2021/12/31 03:28:00;;;;;;;8.70;3.50;;;;;;;;;;5051102;28;20048;-73
2021/12/31 03:30:26;;;;;;;3.70;2.15;;;;;;;;;;5046750;28;20032;-73
2021/12/31 03:32:52;;;;;;;3.08;1.77;;;;;;;;;;5061056;28;20033;-73
2021/12/31 03:35:18;;;;;;;3.95;1.70;;;;;;;;;;5066448;28;20032;-73
2021/12/31 03:37:44;;;;;;;2.90;2.15;;;;;;;;;;5055491;28;20100;-73
2021/12/31 03:40:11;;;;;;;5.15;2.80;;;;;;;;;;5067666;28;20055;-74
2021/12/31 03:42:37;;;;;;;4.63;2.75;;;;;;;;;;5060542;28;20035;-73
2021/12/31 03:45:03;;;;;;;4.85;2.75;;;;;;;;;;5059296;28;20032;-73
2021/12/31 03:47:29;;;;;;;1.17;0.68;;;;;;;;;;5067645;28;20036;-73
2021/12/31 03:49:55;;;;;;;4.82;2.15;;;;;;;;;;5055239;28;20029;-73
2021/12/31 03:52:21;;;;;;;4.63;2.65;;;;;;;;;;5065773;28;20032;-74
2021/12/31 03:54:47;;;;;;;5.00;3.15;;;;;;;;;;5027218;28;20029;-73
2021/12/31 03:57:13;;;;;;;5.07;2.70;;;;;;;;;;5065490;28;20051;-74
2021/12/31 03:59:39;;;;;;;4.45;2.50;;;;;;;;;;5037312;28;20028;-74
2021/12/31 04:02:05;;;;;;;4.88;2.30;;;;;;;;;;5067897;28;20512;-73
2021/12/31 04:04:31;;;;;;;7.43;3.30;;;;;;;;;;5058895;28;20013;-73
2021/12/31 04:06:57;;;;;;;6.03;3.28;;;;;;;;;;5060568;28;20036;-74
2021/12/31 04:09:23;;;;;;;1.33;0.80;;;;;;;;;;5068900;28;20465;-74
2021/12/31 04:11:49;;;;;;;9.05;5.15;;;;;;;;;;5060315;28;20099;-73
2021/12/31 04:14:15;;;;;;;3.80;1.48;;;;;;;;;;5070361;28;20428;-74
2021/12/31 04:16:41;;;;;;;4.57;1.98;;;;;;;;;;5065071;28;20032;-74
2021/12/31 04:19:07;;;;;;;1.63;1.05;;;;;;;;;;5059522;28;20037;-73
2021/12/31 04:21:33;;;;;;;4.82;2.65;;;;;;;;;;5068315;28;20032;-73
2021/12/31 04:24:16;;;;;;;6.32;4.03;;;;;;;;;;5054369;28;20020;-73
2021/12/31 04:26:43;;;;;;;3.83;2.58;;;;;;;;;;5062612;28;20417;-73
2021/12/31 04:29:09;;;;;;;7.07;3.17;;;;;;;;;;5065912;28;20016;-73
2021/12/31 04:31:35;;;;;;;2.80;1.33;;;;;;;;;;5061892;28;20035;-73
2021/12/31 04:34:04;;;;;;;4.00;2.55;;;;;;;;;;5044490;28;20024;-74
2021/12/31 04:36:30;;;;;;;6.65;2.92;;;;;;;;;;5070395;28;20029;-73
2021/12/31 04:38:56;;;;;;;6.85;3.83;;;;;;;;;;5076118;22;20052;-71
2021/12/31 04:41:22;;;;;;;4.50;1.80;;;;;;;;;;5028655;28;20490;-70
2021/12/31 04:43:49;;;;;;;4.25;1.73;;;;;;;;;;5029314;28;20368;-70
2021/12/31 04:46:15;;;;;;;5.15;2.78;;;;;;;;;;5031246;28;20029;-72
2021/12/31 04:48:41;;;;;;;3.28;2.30;;;;;;;;;;5030927;28;20028;-71
2021/12/31 04:51:07;;;;;;;4.47;2.20;;;;;;;;;;5029822;28;20411;-70
2021/12/31 04:53:33;;;;;;;4.15;2.60;;;;;;;;;;5030566;28;20025;-71
2021/12/31 04:56:00;;;;;;;5.20;2.75;;;;;;;;;;5031005;28;20028;-70
2021/12/31 04:58:26;;;;;;;2.55;1.52;;;;;;;;;;5031152;28;20029;-70
2021/12/31 05:00:52;;;;;;;6.07;2.25;;;;;;;;;;5030996;28;20036;-69
2021/12/31 05:03:19;;;;;;;4.32;2.70;;;;;;;;;;5030627;28;20033;-69
2021/12/31 05:05:45;;;;;;;3.42;1.38;;;;;;;;;;5031074;28;20033;-69
2021/12/31 05:08:11;;;;;;;3.70;2.13;;;;;;;;;;5033771;28;20489;-69
2021/12/31 05:10:37;;;;;;;5.55;3.13;;;;;;;;;;5035039;28;20100;-68
2021/12/31 05:13:04;;;;;;;2.38;1.40;;;;;;;;;;5034067;28;20030;-69
2021/12/31 05:15:35;;;;;;;5.10;2.22;;;;;;;;;;5034702;28;20032;-70
2021/12/31 05:18:01;;;;;;;3.58;0.85;;;;;;;;;;5035085;28;20014;-70
2021/12/31 05:20:27;;;;;;;3.10;1.63;;;;;;;;;;5033729;28;20038;-70
2021/12/31 05:22:53;;;;;;;5.03;1.30;;;;;;;;;;5033970;28;20394;-70
2021/12/31 05:25:21;;;;;;;4.50;1.65;;;;;;;;;;5035017;28;20376;-71
2021/12/31 05:27:47;;;;;;;3.85;2.28;;;;;;;;;;5033184;28;20018;-71
2021/12/31 05:30:13;;;;;;;1.45;1.17;;;;;;;;;;5033631;28;20037;-71
2021/12/31 05:32:39;;;;;;;1.20;0.75;;;;;;;;;;5033008;28;20210;-69
2021/12/31 05:35:05;;;;;;;4.15;1.83;;;;;;;;;;5033117;28;20079;-72
2021/12/31 05:37:31;;;;;;;3.33;1.90;;;;;;;;;;5034557;28;20052;-70
2021/12/31 05:39:57;;;;;;;3.58;2.40;;;;;;;;;;5034222;28;20479;-70
2021/12/31 05:42:23;;;;;;;4.13;3.15;;;;;;;;;;5034199;28;20025;-71
2021/12/31 05:44:49;;;;;;;3.03;2.35;;;;;;;;;;5033673;28;20018;-70
2021/12/31 05:47:15;;;;;;;2.38;1.58;;;;;;;;;;5034502;28;20355;-70
2021/12/31 05:49:41;;;;;;;2.42;2.00;;;;;;;;;;5034168;28;20375;-70
2021/12/31 05:52:07;;;;;;;3.13;1.75;;;;;;;;;;5000404;28;20075;-70
2021/12/31 05:54:33;;;;;;;3.92;1.77;;;;;;;;;;5033439;28;20036;-72
2021/12/31 05:56:59;;;;;;;4.20;2.80;;;;;;;;;;5033720;28;20025;-70
2021/12/31 05:59:25;;;;;;;4.50;2.67;;;;;;;;;;5034135;28;20352;-71
2021/12/31 06:01:51;;;;;;;6.53;3.63;;;;;;;;;;5033858;28;20026;-69
2021/12/31 06:04:17;;;;;;;2.78;1.95;;;;;;;;;;5033387;28;20475;-71
2021/12/31 06:06:44;;;;;;;2.65;1.13;;;;;;;;;;5034299;28;20033;-72
2021/12/31 06:09:11;;;;;;;2.10;1.20;;;;;;;;;;5033897;28;20093;-71
2021/12/31 06:11:38;;;;;;;4.30;2.63;;;;;;;;;;5033877;28;20124;-71
2021/12/31 06:14:05;;;;;;;2.63;1.52;;;;;;;;;;5031748;28;20029;-71
2021/12/31 06:16:37;;;;;;;2.75;1.17;;;;;;;;;;5033858;28;20029;-71
2021/12/31 06:19:04;;;;;;;4.70;2.22;;;;;;;;;;5032298;28;20033;-70
2021/12/31 06:21:31;;;;;;;3.03;1.48;;;;;;;;;;5033656;28;20574;-70
2021/12/31 06:23:57;;;;;;;3.90;1.90;;;;;;;;;;5032979;28;20491;-71
2021/12/31 06:26:22;;;;;;;2.15;1.20;;;;;;;;;;5033950;28;20032;-71
2021/12/31 06:28:48;;;;;;;2.10;1.13;;;;;;;;;;5033422;28;20624;-70
2021/12/31 06:31:16;;;;;;;1.85;1.13;;;;;;;;;;5033134;28;20310;-70
2021/12/31 06:33:42;;;;;;;1.65;0.60;;;;;;;;;;5031991;28;20479;-70
2021/12/31 06:36:08;;;;;;;4.45;0.90;;;;;;;;;;5033376;28;20112;-70
2021/12/31 06:38:34;;;;;;;1.92;0.95;;;;;;;;;;5031923;28;20117;-70
2021/12/31 06:41:00;;;;;;;4.00;2.35;;;;;;;;;;5032655;28;20029;-69
2021/12/31 06:43:26;;;;;;;4.32;2.03;;;;;;;;;;5031167;28;20029;-70
2021/12/31 06:45:52;;;;;;;1.15;0.70;;;;;;;;;;5033065;28;20026;-70
2021/12/31 06:48:18;;;;;;;3.17;0.88;;;;;;;;;;5033061;28;20475;-71
2021/12/31 06:50:44;;;;;;;2.70;1.38;;;;;;;;;;5031704;28;20076;-71
2021/12/31 06:53:10;;;;;;;2.33;1.42;;;;;;;;;;5032073;28;20542;-71
2021/12/31 06:55:36;;;;;;;1.75;1.05;;;;;;;;;;5026896;28;20380;-73
2021/12/31 06:58:02;;;;;;;1.13;0.90;;;;;;;;;;5032880;28;20067;-69
2021/12/31 07:00:28;;;;;;;4.70;2.28;;;;;;;;;;5032640;28;20383;-70
2021/12/31 07:03:04;;;;;;;2.13;1.35;;;;;;;;;;5032112;28;20080;-71
2021/12/31 07:05:30;;;;;;;1.55;0.82;;;;;;;;;;5032741;28;20483;-70
2021/12/31 07:07:56;;;;;;;1.27;0.82;;;;;;;;;;5032890;28;20033;-72
2021/12/31 07:10:22;;;;;;;1.20;0.70;;;;;;;;;;5030144;28;20025;-73
2021/12/31 07:12:48;;;;;;;1.67;0.73;;;;;;;;;;5030609;28;20036;-69
2021/12/31 07:15:14;;;;;;;1.85;0.68;;;;;;;;;;5030653;28;20060;-69
2021/12/31 07:17:40;;;;;;;2.85;1.70;;;;;;;;;;5032542;28;20026;-70
2021/12/31 07:20:07;;;;;;;3.22;1.42;;;;;;;;;;5032667;28;20030;-71
2021/12/31 07:22:37;;;;;;;1.27;1.00;;;;;;;;;;5033615;28;20391;-71
2021/12/31 07:25:03;;;;;;;1.47;0.83;;;;;;;;;;5031944;28;20037;-71
2021/12/31 07:27:32;;;;;;;2.03;1.42;;;;;;;;;;5032538;28;20025;-70
2021/12/31 07:29:57;;;;;;;1.85;0.70;;;;;;;;;;5031654;28;20010;-70
2021/12/31 07:32:23;;;;;;;1.40;1.08;;;;;;;;;;5032286;28;20156;-67
2021/12/31 07:34:49;;;;;;;3.35;0.90;;;;;;;;;;5031213;28;20494;-70
2021/12/31 07:37:15;;;;;;;1.60;1.08;;;;;;;;;;5032138;28;20116;-71
2021/12/31 07:39:47;;;;;;;0.98;0.60;;;;;;;;;;5029205;28;20099;-71
2021/12/31 07:42:13;;;;;;;;;;;;;;;;;;5031262;28;20044;-69
2021/12/31 07:44:39;;;;;;;2.35;1.38;;;;;;;;;;5031356;28;19964;-70
2021/12/31 07:47:05;;;;;;;1.65;1.38;;;;;;;;;;5031922;28;20049;-70
2021/12/31 07:49:31;;;;;;;5.60;1.90;;;;;;;;;;5031796;28;20035;-69
2021/12/31 07:51:57;;;;;;;3.22;1.63;;;;;;;;;;5031890;28;20116;-70
2021/12/31 07:54:23;;;;;;;1.15;0.85;;;;;;;;;;5031184;28;20036;-69
2021/12/31 07:56:49;;;;;;;3.88;1.27;;;;;;;;;;5031780;28;20068;-70
2021/12/31 07:59:14;;;;;;;2.03;1.17;;;;;;;;;;5031575;28;20648;-69
2021/12/31 08:01:40;;;;;;;1.52;1.05;;;;;;;;;;5031369;28;20033;-70
2021/12/31 08:04:06;;;;;;;4.50;2.15;;;;;;;;;;5030890;28;20115;-69
2021/12/31 08:06:32;;;;;;;5.85;2.30;;;;;;;;;;5032090;28;20151;-70
2021/12/31 08:08:58;;;;;;;3.28;1.83;;;;;;;;;;5031525;28;20068;-69
2021/12/31 08:11:24;;;;;;;1.30;0.90;;;;;;;;;;5029774;28;20024;-67
2021/12/31 08:13:50;;;;;;;2.92;1.35;;;;;;;;;;5029407;28;20024;-72
2021/12/31 08:16:16;;;;;;;4.00;1.67;;;;;;;;;;5032123;28;20052;-73
2021/12/31 08:18:42;;;;;;;2.03;1.20;;;;;;;;;;5032821;28;20441;-70
2021/12/31 08:21:08;;;;;;;2.22;1.48;;;;;;;;;;5030822;28;20117;-75
2021/12/31 08:23:34;;;;;;;2.58;1.35;;;;;;;;;;5031654;28;20022;-75
2021/12/31 08:26:02;;;;;;;3.33;1.50;;;;;;;;;;5032138;28;20048;-71
2021/12/31 08:28:28;;;;;;;1.80;0.77;;;;;;;;;;5030660;28;20496;-71
2021/12/31 08:30:55;;;;;;;3.45;1.88;;;;;;;;;;5031606;28;20100;-71
2021/12/31 08:33:21;;;;;;;4.78;1.17;;;;;;;;;;5013692;28;20033;-70
2021/12/31 08:35:47;;;;;;;1.83;1.00;;;;;;;;;;5046753;28;20056;-70
2021/12/31 08:38:13;;;;;;;1.70;0.77;;;;;;;;;;5031537;28;20120;-69
2021/12/31 08:40:39;;;;;;;4.00;1.48;;;;;;;;;;5031058;28;20080;-69
2021/12/31 08:43:05;;;;;;;1.65;0.98;;;;;;;;;;5029457;28;20103;-74
2021/12/31 08:45:32;;;;;;;2.38;1.00;;;;;;;;;;5031305;28;20480;-70
2021/12/31 08:47:58;;;;;;;6.03;1.60;;;;;;;;;;5030767;28;20041;-72
2021/12/31 08:50:24;;;;;;;2.40;0.95;;;;;;;;;;5031116;28;20028;-69
2021/12/31 08:52:51;;;;;;;1.45;0.90;;;;;;;;;;5030937;28;20087;-70
2021/12/31 08:55:17;;;;;;;5.25;1.42;;;;;;;;;;5031474;28;20132;-69
2021/12/31 08:57:44;;;;;;;3.58;1.77;;;;;;;;;;5029167;28;20450;-70
2021/12/31 09:00:10;;;;;;;1.48;0.68;;;;;;;;;;5030998;28;20424;-70
2021/12/31 09:02:39;;;;;;;2.05;1.20;;;;;;;;;;5039763;28;20025;-70
2021/12/31 09:05:06;;;;;;;1.38;0.70;;;;;;;;;;5033039;28;20425;-69
2021/12/31 09:07:32;;;;;;;6.93;1.20;;;;;;;;;;5031397;28;20036;-71
2021/12/31 09:09:58;;;;;;;2.05;1.50;;;;;;;;;;5032822;28;20394;-69
2021/12/31 09:12:24;;;;;;;2.28;1.63;;;;;;;;;;5030946;28;20475;-71
2021/12/31 09:14:50;;;;;;;2.67;1.65;;;;;;;;;;5029719;28;20025;-70
2021/12/31 09:17:17;;;;;;;4.38;1.42;;;;;;;;;;5030130;28;20049;-71
2021/12/31 09:19:43;;;;;;;3.80;1.55;;;;;;;;;;5030692;28;20037;-71
2021/12/31 09:22:09;;;;;;;2.33;1.33;;;;;;;;;;5030698;28;20022;-70
2021/12/31 09:24:35;;;;;;;3.42;1.23;;;;;;;;;;5030260;28;20025;-70
2021/12/31 09:27:01;;;;;;;1.70;0.55;;;;;;;;;;5030993;28;20068;-70
2021/12/31 09:29:27;;;;;;;4.40;1.58;;;;;;;;;;5030457;28;20029;-70
2021/12/31 09:31:53;;;;;;;2.88;0.98;;;;;;;;;;5030902;28;20087;-70
2021/12/31 09:34:19;;;;;;;0.80;0.70;;;;;;;;;;5031043;28;20025;-71
2021/12/31 09:36:45;;;;;;;4.10;0.90;;;;;;;;;;5031610;28;20083;-71
2021/12/31 09:39:12;;;;;;;2.55;1.75;;;;;;;;;;5030971;28;20034;-70
2021/12/31 09:41:38;;;;;;;3.05;1.23;;;;;;;;;;5030741;28;20485;-69
2021/12/31 09:44:04;;;;;;;2.78;1.13;;;;;;;;;;5030138;28;20108;-70
2021/12/31 09:46:30;;;;;;;4.30;1.40;;;;;;;;;;5029612;28;20112;-71
2021/12/31 09:48:56;;;;;;;0.73;0.73;;;;;;;;;;5030993;28;20017;-71
2021/12/31 09:51:22;;;;;;;3.35;0.98;;;;;;;;;;5030880;28;20021;-71
2021/12/31 09:53:50;;;;;;;4.32;0.98;;;;;;;;;;5032941;28;20048;-71
2021/12/31 09:56:16;;;;;;;2.38;1.42;;;;;;;;;;5034323;28;20033;-70
2021/12/31 09:58:42;;;;;;;1.92;0.90;;;;;;;;;;5034343;28;20017;-71
2021/12/31 10:01:09;;;;;;;3.53;1.17;;;;;;;;;;5034269;28;20072;-70
2021/12/31 10:03:35;;;;;;;4.13;1.10;;;;;;;;;;5033105;28;20030;-70
2021/12/31 10:06:08;;;;;;;4.22;1.05;;;;;;;;;;5034554;28;20029;-71
2021/12/31 10:08:45;;;;;;;1.23;0.90;;;;;;;;;;5034161;28;20055;-71
2021/12/31 10:11:11;;;;;;;5.50;1.50;;;;;;;;;;5034172;28;20026;-71
2021/12/31 10:13:41;;;;;;;1.35;0.80;;;;;;;;;;5033240;28;20026;-70
2021/12/31 10:16:19;;;;;;;1.60;0.73;;;;;;;;;;5033816;28;20025;-72
2021/12/31 10:18:45;;;;;;;2.33;0.98;;;;;;;;;;5018480;28;20025;-70
2021/12/31 10:21:11;;;;;;;1.88;1.13;;;;;;;;;;5034057;28;20047;-73
2021/12/31 10:23:38;;;;;;;1.15;0.90;;;;;;;;;;5032602;28;20029;-74
2021/12/31 10:26:10;;;;;;;1.55;0.88;;;;;;;;;;5033733;28;20029;-73
2021/12/31 10:28:36;;;;;;;6.00;1.33;;;;;;;;;;5033684;28;20013;-74
2021/12/31 10:31:12;;;;;;;92.93;52.45;;;;;;;;;;5033619;28;20052;-74
2021/12/31 10:33:40;;;;;;;20.90;12.25;;;;;;;;;;5031295;28;20034;-74
2021/12/31 10:36:06;;;;;;;130.60;59.47;;;;;;;;;;5033575;28;20036;-73
2021/12/31 10:41:01;;;;;;;50.65;23.15;;;;;;;;;;5070559;28;20044;-74
2021/12/31 10:43:30;;;;;;;38.30;17.20;;;;;;;;;;5064864;28;20486;-76
2021/12/31 10:46:11;;;;;;;68.80;32.88;;;;;;;;;;5059428;28;20017;-75
2021/12/31 10:48:40;;;;;;;12.80;6.25;;;;;;;;;;5069416;28;20039;-76
2021/12/31 10:51:07;;;;;;;14.35;7.60;;;;;;;;;;5058291;28;20099;-76
2021/12/31 10:53:34;;;;;;;135.85;67.40;;;;;;;;;;5061341;28;20479;-77
2021/12/31 10:56:10;;;;;;;86.78;43.15;;;;;;;;;;5067718;28;20367;-74
2021/12/31 10:58:37;;;;;;;34.80;15.35;;;;;;;;;;5038527;28;20090;-73
2021/12/31 11:01:07;;;;;;;4.28;2.72;;;;;;;;;;5066564;28;20083;-75
2021/12/31 11:03:35;;;;;;;42.53;20.15;;;;;;;;;;5062574;28;20035;-75
2021/12/31 11:06:01;;;;;;;4.10;2.20;;;;;;;;;;5058439;28;20021;-75
2021/12/31 11:08:28;;;;;;;52.38;26.30;;;;;;;;;;5069630;28;20021;-75
2021/12/31 11:10:54;;;;;;;28.20;13.77;;;;;;;;;;5058826;28;20024;-75
2021/12/31 11:13:25;;;;;;;19.05;9.02;;;;;;;;;;5062982;28;20029;-74
2021/12/31 11:15:52;;;;;;;8.70;4.63;;;;;;;;;;5048660;28;20028;-73
2021/12/31 11:18:22;;;;;;;22.80;10.90;;;;;;;;;;5056326;28;20025;-74
2021/12/31 11:20:48;;;;;;;7.75;4.03;;;;;;;;;;5067977;28;20016;-74
2021/12/31 11:23:14;;;;;;;21.27;10.65;;;;;;;;;;5063819;28;20025;-75
2021/12/31 11:25:59;;;;;;;6.50;2.53;;;;;;;;;;5046594;28;20185;-76
2021/12/31 11:28:30;;;;;;;2.40;1.58;;;;;;;;;;5057684;28;20400;-74
2021/12/31 11:30:57;;;;;;;3.35;0.75;;;;;;;;;;5066557;28;20049;-74
2021/12/31 11:33:28;;;;;;;4.53;2.35;;;;;;;;;;5061193;28;20063;-74
2021/12/31 11:35:54;;;;;;;2.20;1.38;;;;;;;;;;5072369;28;20056;-73
2021/12/31 11:38:23;;;;;;;3.20;1.98;;;;;;;;;;5068169;28;20038;-73
2021/12/31 11:41:03;;;;;;;1.65;0.80;;;;;;;;;;5048789;28;20044;-74
2021/12/31 11:43:29;;;;;;;3.15;1.23;;;;;;;;;;5062205;28;20058;-74
2021/12/31 11:46:11;;;;;;;7.20;2.58;;;;;;;;;;5060730;28;20021;-74
2021/12/31 11:48:52;;;;;;;4.32;2.15;;;;;;;;;;5053730;28;20071;-75
2021/12/31 11:51:21;;;;;;;6.22;1.08;;;;;;;;;;5047908;28;20021;-73
2021/12/31 11:53:59;;;;;;;5.93;2.55;;;;;;;;;;5061869;28;20707;-73
2021/12/31 11:56:37;;;;;;;2.30;1.00;;;;;;;;;;5068705;28;20024;-74
2021/12/31 11:59:09;;;;;;;7.28;1.35;;;;;;;;;;5058239;28;20021;-73
2021/12/31 12:01:38;;;;;;;4.53;1.10;;;;;;;;;;5070857;28;20044;-74
2021/12/31 12:04:23;;;;;;;4.10;1.50;;;;;;;;;;5057003;28;20088;-74
2021/12/31 12:07:02;;;;;;;3.63;1.00;;;;;;;;;;5054782;28;20025;-74
2021/12/31 12:09:37;;;;;;;3.45;0.95;;;;;;;;;;5069907;28;20024;-74
2021/12/31 12:12:07;;;;;;;3.42;1.20;;;;;;;;;;5071344;28;20028;-77
2021/12/31 12:14:47;;;;;;;4.88;1.98;;;;;;;;;;5056930;28;20020;-75
2021/12/31 12:17:14;;;;;;;33.38;16.88;;;;;;;;;;5070427;28;20504;-76
2021/12/31 12:19:51;;;;;;;58.10;29.05;;;;;;;;;;5060604;28;20079;-76
2021/12/31 12:22:37;;;;;;;54.38;27.02;;;;;;;;;;5066801;28;20017;-75
2021/12/31 12:25:03;;;;;;;15.65;7.32;;;;;;;;;;5053874;28;20017;-77
2021/12/31 12:27:29;;;;;;;26.80;13.52;;;;;;;;;;5065005;28;20027;-76
2021/12/31 12:29:57;;;;;;;13.88;6.00;;;;;;;;;;5060314;28;20033;-71
2021/12/31 12:35:13;;;;;;;3.60;1.25;;;;;;;;;;5064029;28;20498;-74
2021/12/31 12:37:39;;;;;;;17.77;9.32;;;;;;;;;;5062684;28;20120;-73
2021/12/31 12:40:05;;;;;;;12.40;6.45;;;;;;;;;;5060111;28;20059;-74
2021/12/31 12:42:32;;;;;;;11.10;5.53;;;;;;;;;;5062772;28;20588;-73
2021/12/31 12:45:03;;;;;;;7.28;3.83;;;;;;;;;;5057910;28;20028;-74
2021/12/31 12:47:29;;;;;;;26.08;11.38;;;;;;;;;;5046625;28;20111;-75
2021/12/31 12:49:59;;;;;;;19.17;9.07;;;;;;;;;;5070452;28;20023;-76
2021/12/31 12:52:25;;;;;;;16.17;8.65;;;;;;;;;;5055856;28;20182;-76
2021/12/31 12:55:09;;;;;;;8.13;3.13;;;;;;;;;;5069344;28;20047;-74
2021/12/31 12:57:35;;;;;;;24.90;12.60;;;;;;;;;;5060823;28;20029;-75
2021/12/31 13:00:01;;;;;;;5.20;1.10;;;;;;;;;;5067158;28;20103;-76
2021/12/31 13:02:37;;;;;;;4.22;2.13;;;;;;;;;;5055304;28;20479;-74
2021/12/31 13:05:04;;;;;;;2.97;1.90;;;;;;;;;;5063822;28;20059;-77
2021/12/31 13:07:30;;;;;;;37.00;21.10;;;;;;;;;;5070375;28;20066;-77
2021/12/31 13:10:03;;;;;;;13.15;7.45;;;;;;;;;;5046973;28;20024;-76
2021/12/31 13:12:29;;;;;;;25.95;13.18;;;;;;;;;;5056761;28;20601;-73
2021/12/31 13:14:55;;;;;;;21.40;11.57;;;;;;;;;;5067661;28;20111;-76
2021/12/31 13:17:23;;;;;;;83.65;45.08;;;;;;;;;;5052912;28;20490;-71
2021/12/31 13:19:49;;;;;;;10.75;6.25;;;;;;;;;;5063954;28;20417;-74
2021/12/31 13:22:15;;;;;;;4.95;2.65;;;;;;;;;;5047839;28;20039;-72
2021/12/31 13:24:41;;;;;;;42.08;22.02;;;;;;;;;;5069541;28;20048;-72
2021/12/31 13:27:10;;;;;;;11.25;5.63;;;;;;;;;;5044091;28;20028;-71
2021/12/31 13:29:40;;;;;;;7.97;4.05;;;;;;;;;;5065148;28;20622;-73
2021/12/31 13:32:06;;;;;;;15.05;7.45;;;;;;;;;;5071797;28;20108;-74
2021/12/31 13:34:46;;;;;;;12.73;6.35;;;;;;;;;;5069889;28;20142;-74
2021/12/31 13:37:30;;;;;;;2.88;0.77;;;;;;;;;;5062788;28;20021;-74
2021/12/31 13:40:16;;;;;;;4.55;2.65;;;;;;;;;;5069188;28;20108;-75
2021/12/31 13:42:43;;;;;;;1.83;1.15;;;;;;;;;;5071292;28;20066;-73
2021/12/31 13:45:20;;;;;;;2.08;1.33;;;;;;;;;;5061311;28;20100;-73
2021/12/31 13:47:46;;;;;;;4.15;1.35;;;;;;;;;;5067856;28;20040;-72
2021/12/31 13:50:12;;;;;;;14.43;6.90;;;;;;;;;;5072862;28;20037;-73
2021/12/31 13:52:48;;;;;;;12.95;4.53;;;;;;;;;;5057302;28;20024;-74
2021/12/31 13:55:18;;;;;;;24.38;13.10;;;;;;;;;;5052098;28;20021;-73
2021/12/31 13:57:58;;;;;;;16.13;7.05;;;;;;;;;;5060242;28;20177;-73
2021/12/31 14:00:25;;;;;;;3.03;1.27;;;;;;;;;;5069718;28;20394;-73
2021/12/31 14:02:51;;;;;;;5.25;2.15;;;;;;;;;;5039762;28;20012;-73
2021/12/31 14:05:27;;;;;;;14.30;6.07;;;;;;;;;;5063670;28;20492;-74
2021/12/31 14:10:20;;;;;;;9.63;4.95;;;;;;;;;;5058377;28;20032;-73
2021/12/31 14:12:47;;;;;;;13.13;6.53;;;;;;;;;;5069205;28;20017;-74
2021/12/31 14:15:14;;;;;;;5.55;3.25;;;;;;;;;;5062731;28;20032;-74
2021/12/31 14:17:40;;;;;;;6.15;4.15;;;;;;;;;;5063065;28;20021;-74
2021/12/31 14:20:06;;;;;;;17.85;8.90;;;;;;;;;;5065745;28;20104;-73
2021/12/31 14:22:33;;;;;;;3.35;1.27;;;;;;;;;;5070299;28;20024;-74
2021/12/31 14:24:59;;;;;;;2.53;1.35;;;;;;;;;;5059707;28;20104;-74
2021/12/31 14:27:25;;;;;;;1.48;0.90;;;;;;;;;;5063783;28;20063;-74
2021/12/31 14:29:54;;;;;;;4.80;2.97;;;;;;;;;;5067271;28;20020;-75
2021/12/31 14:32:20;;;;;;;6.05;2.67;;;;;;;;;;5057676;28;20323;-74
2021/12/31 14:34:46;;;;;;;9.20;1.77;;;;;;;;;;5068768;28;20096;-74
2021/12/31 14:37:14;;;;;;;9.88;4.75;;;;;;;;;;5061946;28;20097;-73
2021/12/31 14:39:50;;;;;;;14.80;7.50;;;;;;;;;;5060201;28;20021;-74
2021/12/31 14:42:16;;;;;;;3.85;2.45;;;;;;;;;;5070256;28;20027;-73
2021/12/31 14:44:42;;;;;;;19.13;9.35;;;;;;;;;;5056909;28;20024;-73
2021/12/31 14:47:08;;;;;;;2.17;1.55;;;;;;;;;;5066547;28;20116;-73
2021/12/31 14:49:35;;;;;;;17.10;8.82;;;;;;;;;;5064665;28;20094;-73
2021/12/31 14:52:01;;;;;;;2.67;1.33;;;;;;;;;;5058734;28;20021;-73
2021/12/31 14:54:27;;;;;;;6.05;3.13;;;;;;;;;;5050972;28;20085;-73